Time;durP1;ratioP1;P1;durP2;ratioP2;P2;SDS_P1;SDS_P2;PMS_P1;PMS_P2;Temp;Humidity;BMP_temperature;BMP_pressure;BME280_temperature;BME280_humidity;BME280_pressure;Samples;Min_cycle;Max_cycle;Signal;HPM_P1;HPM_P2
2023/01/25 00:00:25;;;;;;;61.55;48.08;;;;;;;2.51;100.00;103638.69;5327157;27;20034;-78
2023/01/25 00:02:56;;;;;;;61.60;48.38;;;;;;;2.47;100.00;103635.25;5333642;27;20486;-77
2023/01/25 00:05:28;;;;;;;60.83;47.80;;;;;;;2.51;100.00;103630.91;5320758;27;21093;-77
2023/01/25 00:07:59;;;;;;;62.97;49.65;;;;;;;2.46;100.00;103625.75;5329306;27;20173;-77
2023/01/25 00:10:30;;;;;;;66.72;51.47;;;;;;;2.53;100.00;103624.84;5325203;27;20034;-76
2023/01/25 00:13:02;;;;;;;67.00;51.15;;;;;;;2.55;100.00;103630.03;5322894;27;20023;-77
2023/01/25 00:15:33;;;;;;;68.40;52.67;;;;;;;2.54;100.00;103624.00;5333681;27;20480;-77
2023/01/25 00:18:04;;;;;;;66.40;49.90;;;;;;;2.55;100.00;103628.28;5328032;27;20068;-76
2023/01/25 00:20:35;;;;;;;67.25;51.05;;;;;;;2.53;100.00;103622.25;5320753;27;20300;-77
2023/01/25 00:23:07;;;;;;;66.00;52.13;;;;;;;2.54;100.00;103628.28;5319040;27;20050;-76
2023/01/25 00:25:38;;;;;;;65.90;50.60;;;;;;;2.58;100.00;103628.28;5330891;27;20030;-76
2023/01/25 00:28:12;;;;;;;67.07;52.75;;;;;;;2.47;100.00;103609.38;5326031;27;20023;-77
2023/01/25 00:30:43;;;;;;;67.30;52.08;;;;;;;2.58;100.00;103623.09;5324424;27;21245;-77
2023/01/25 00:33:15;;;;;;;70.75;52.53;;;;;;;2.53;100.00;103624.84;5327632;27;20076;-76
2023/01/25 00:35:47;;;;;;;73.13;55.47;;;;;;;2.47;100.00;103621.47;5325453;27;20042;-76
2023/01/25 00:38:34;;;;;;;68.88;51.75;;;;;;;2.67;100.00;103623.03;5307846;27;20266;-76
2023/01/25 00:41:08;;;;;;;72.15;54.75;;;;;;;2.41;100.00;103615.44;5312588;27;20019;-77
2023/01/25 00:43:42;;;;;;;;;;;;;;;2.96;100.00;103613.34;5327460;27;20493;-76
2023/01/25 00:46:15;;;;;;;70.20;52.28;;;;;;;2.51;100.00;103620.56;5328981;27;19922;-76
2023/01/25 00:48:46;;;;;;;69.18;50.90;;;;;;;2.50;100.00;103611.94;5328405;27;20027;-77
2023/01/25 00:51:18;;;;;;;72.20;54.45;;;;;;;2.50;100.00;103622.31;5308604;27;20031;-76
2023/01/25 00:53:52;;;;;;;72.65;53.90;;;;;;;2.50;100.00;103609.34;5326972;27;20430;-77
2023/01/25 00:56:23;;;;;;;72.30;54.00;;;;;;;2.49;100.00;103617.97;5328808;27;20059;-77
2023/01/25 00:58:55;;;;;;;70.22;52.75;;;;;;;2.50;100.00;103619.72;5318511;27;20066;-77
2023/01/25 01:01:26;;;;;;;72.43;54.95;;;;;;;2.47;100.00;103608.53;5323555;27;20028;-78
2023/01/25 01:03:57;;;;;;;68.93;52.15;;;;;;;2.43;100.00;103605.94;5315634;27;20101;-76
2023/01/25 01:06:29;;;;;;;73.03;54.83;;;;;;;2.43;100.00;103603.34;5309495;27;20035;-77
2023/01/25 01:09:00;;;;;;;73.93;54.67;;;;;;;2.49;100.00;103607.63;5324531;27;20043;-78
2023/01/25 01:11:31;;;;;;;74.88;54.92;;;;;;;2.48;100.00;103599.88;5323270;27;20026;-76
2023/01/25 01:14:06;;;;;;;76.38;55.83;;;;;;;2.56;100.00;103604.13;5327222;27;20077;-76
2023/01/25 01:16:37;;;;;;;77.10;57.28;;;;;;;2.42;100.00;103598.19;5328104;27;20019;-77
2023/01/25 01:19:09;;;;;;;76.60;57.00;;;;;;;2.49;100.00;103606.75;5322264;27;20084;-76
2023/01/25 01:21:40;;;;;;;76.35;57.15;;;;;;;2.37;100.00;103590.44;5325403;27;20019;-77
2023/01/25 01:24:12;;;;;;;75.93;56.60;;;;;;;2.48;100.00;103610.22;5324859;27;20026;-76
2023/01/25 01:26:43;;;;;;;79.78;58.08;;;;;;;2.47;100.00;103604.19;5313223;27;20052;-77
2023/01/25 01:29:14;;;;;;;80.38;59.65;;;;;;;2.44;100.00;103601.63;5328115;27;20674;-76
2023/01/25 01:31:50;;;;;;;73.10;55.42;;;;;;;2.50;100.00;103598.13;5327654;27;20026;-77
2023/01/25 01:34:21;;;;;;;79.63;56.92;;;;;;;2.46;100.00;103602.47;5325437;27;20591;-78
2023/01/25 01:36:53;;;;;;;79.60;59.35;;;;;;;2.44;100.00;103602.47;5327397;27;20031;-76
2023/01/25 01:39:25;;;;;;;77.05;57.30;;;;;;;2.44;100.00;103604.22;5327190;27;20023;-76
2023/01/25 01:41:56;;;;;;;80.60;58.70;;;;;;;2.38;100.00;103604.25;5331216;27;20377;-76
2023/01/25 01:44:59;;;;;;;81.53;59.60;;;;;;;2.75;100.00;103604.00;5327940;27;20089;-76
2023/01/25 01:47:41;;;;;;;81.43;58.55;;;;;;;2.57;100.00;103594.63;5288678;27;20071;-76
2023/01/25 01:50:21;;;;;;;82.28;60.30;;;;;;;2.56;100.00;103603.28;5332752;27;20103;-77
2023/01/25 01:52:53;;;;;;;79.22;58.55;;;;;;;2.41;100.00;103605.09;5331194;27;20059;-76
2023/01/25 01:55:24;;;;;;;80.45;58.20;;;;;;;2.42;100.00;103603.34;5324814;27;20064;-77
2023/01/25 01:57:58;;;;;;;83.15;58.25;;;;;;;2.42;100.00;103600.75;5313126;27;20024;-77
2023/01/25 02:00:33;;;;;;;84.20;60.28;;;;;;;2.48;100.00;103611.09;5327707;27;20031;-76
2023/01/25 02:03:05;;;;;;;80.80;57.42;;;;;;;2.35;100.00;103593.91;5326885;27;20518;-77
2023/01/25 02:05:50;;;;;;;77.53;57.58;;;;;;;2.41;100.00;103606.81;5324669;27;20097;-77
2023/01/25 02:08:23;;;;;;;78.95;58.45;;;;;;;2.38;100.00;103599.06;5327105;27;20031;-76
2023/01/25 02:10:55;;;;;;;76.53;56.38;;;;;;;2.28;100.00;103597.44;5321269;27;20141;-77
2023/01/25 02:13:27;;;;;;;80.63;56.83;;;;;;;2.32;100.00;103602.56;5332340;27;20020;-77
2023/01/25 02:15:58;;;;;;;83.30;61.13;;;;;;;2.26;100.00;103594.81;5328753;27;20134;-77
2023/01/25 02:18:30;;;;;;;80.60;58.95;;;;;;;2.23;100.00;103588.81;5325207;27;20016;-75
2023/01/25 02:21:01;;;;;;;79.60;58.17;;;;;;;2.30;100.00;103600.84;5316422;27;20028;-76
2023/01/25 02:23:55;;;;;;;82.13;59.28;;;;;;;2.57;100.00;103595.47;5309145;27;20712;-75
2023/01/25 02:26:27;;;;;;;79.80;57.75;;;;;;;2.37;100.00;103587.00;5331076;27;20051;-77
2023/01/25 02:29:02;;;;;;;83.95;60.42;;;;;;;2.42;100.00;103580.06;5324108;27;20073;-77
2023/01/25 02:31:34;;;;;;;79.13;58.03;;;;;;;2.36;100.00;103580.13;5321013;27;20119;-77
2023/01/25 02:34:05;;;;;;;82.68;58.95;;;;;;;2.37;100.00;103579.25;5305360;27;20654;-77
2023/01/25 02:36:37;;;;;;;81.30;59.10;;;;;;;2.39;100.00;103575.78;5327253;27;20085;-77
2023/01/25 02:39:16;;;;;;;82.13;59.47;;;;;;;2.42;100.00;103577.47;5323778;27;20064;-76
2023/01/25 02:41:48;;;;;;;85.25;59.22;;;;;;;2.21;100.00;103564.69;5327985;27;20032;-77
2023/01/25 02:44:24;;;;;;;83.97;59.42;;;;;;;2.27;100.00;103575.00;5328730;27;20084;-77
2023/01/25 02:46:56;;;;;;;88.97;59.90;;;;;;;2.25;100.00;103572.44;5327833;28;20027;-77
2023/01/25 02:49:27;;;;;;;85.80;60.95;;;;;;;2.19;100.00;103562.97;5326298;27;20498;-77
2023/01/25 02:51:58;;;;;;;93.38;62.75;;;;;;;2.22;100.00;103571.59;5326165;27;20046;-77
2023/01/25 02:54:30;;;;;;;91.70;63.30;;;;;;;2.13;100.00;103563.00;5328818;27;20041;-77
2023/01/25 02:57:01;;;;;;;91.32;62.70;;;;;;;2.12;100.00;103563.91;5326195;28;20112;-77
2023/01/25 02:59:32;;;;;;;86.80;60.42;;;;;;;2.05;100.00;103556.19;5325547;28;20447;-77
2023/01/25 03:02:04;;;;;;;86.80;61.05;;;;;;;2.14;100.00;103559.56;5329738;28;20019;-76
2023/01/25 03:04:35;;;;;;;88.85;61.03;;;;;;;2.15;100.00;103560.41;5328792;28;20032;-77
2023/01/25 03:07:06;;;;;;;89.43;62.42;;;;;;;2.19;100.00;103568.13;5328310;28;20333;-77
2023/01/25 03:09:38;;;;;;;89.85;62.97;;;;;;;2.23;100.00;103568.97;5331049;28;20031;-76
2023/01/25 03:12:09;;;;;;;89.95;62.35;;;;;;;2.18;100.00;103561.25;5327253;28;20038;-77
2023/01/25 03:14:40;;;;;;;96.05;63.00;;;;;;;2.19;100.00;103564.69;5308507;28;20026;-77
2023/01/25 03:17:11;;;;;;;90.25;63.50;;;;;;;2.17;100.00;103541.44;5326108;28;20050;-77
2023/01/25 03:19:43;;;;;;;89.28;61.20;;;;;;;2.13;100.00;103531.97;5316078;28;20022;-76
2023/01/25 03:22:14;;;;;;;88.60;60.67;;;;;;;2.27;100.00;103554.28;5327507;28;20118;-77
2023/01/25 03:24:45;;;;;;;88.75;61.72;;;;;;;2.26;100.00;103550.84;5327832;28;20114;-76
2023/01/25 03:27:17;;;;;;;86.47;60.75;;;;;;;2.22;100.00;103550.91;5328545;27;20039;-77
2023/01/25 03:29:48;;;;;;;88.63;61.33;;;;;;;2.21;100.00;103549.19;5329025;27;20039;-76
2023/01/25 03:32:20;;;;;;;88.00;61.38;;;;;;;2.13;100.00;103526.81;5333034;27;20035;-77
2023/01/25 03:34:51;;;;;;;91.18;64.70;;;;;;;2.07;100.00;103518.22;5329534;27;20103;-75
2023/01/25 03:37:26;;;;;;;90.68;61.92;;;;;;;2.06;100.00;103517.38;5329251;27;20454;-77
2023/01/25 03:39:57;;;;;;;94.03;64.13;;;;;;;2.09;100.00;103524.25;5330371;27;20465;-77
2023/01/25 03:42:28;;;;;;;89.60;62.20;;;;;;;2.14;100.00;103527.66;5331524;27;20152;-76
2023/01/25 03:44:59;;;;;;;89.88;62.60;;;;;;;2.14;100.00;103527.66;5330353;27;20046;-76
2023/01/25 03:47:31;;;;;;;88.35;60.78;;;;;;;2.13;100.00;103526.81;5325568;27;20492;-76
2023/01/25 03:50:02;;;;;;;93.85;63.60;;;;;;;2.14;100.00;103522.50;5325693;27;20705;-78
2023/01/25 03:53:26;;;;;;;88.68;61.92;;;;;;;2.37;100.00;103519.75;5331916;27;20167;-75
2023/01/25 03:56:00;;;;;;;90.03;61.58;;;;;;;2.22;100.00;103517.25;5307416;27;20104;-75
2023/01/25 03:58:32;;;;;;;93.28;64.75;;;;;;;2.11;100.00;103527.69;5333003;27;20494;-76
2023/01/25 04:01:05;;;;;;;90.53;62.92;;;;;;;2.16;100.00;103525.94;5328734;27;20634;-78
2023/01/25 04:03:37;;;;;;;88.05;59.78;;;;;;;2.10;100.00;103521.66;5329833;27;20483;-76
2023/01/25 04:06:08;;;;;;;89.85;63.13;;;;;;;2.15;100.00;103527.66;5330374;27;20032;-76
2023/01/25 04:08:40;;;;;;;91.38;62.50;;;;;;;2.13;100.00;103521.63;5333534;27;20541;-77
2023/01/25 04:11:11;;;;;;;89.00;62.25;;;;;;;2.11;100.00;103523.38;5314007;27;20028;-76
2023/01/25 04:13:42;;;;;;;89.22;61.97;;;;;;;2.07;100.00;103513.91;5334453;27;20023;-76
2023/01/25 04:16:14;;;;;;;87.75;61.38;;;;;;;2.10;100.00;103524.25;5331126;27;20012;-75
2023/01/25 04:18:45;;;;;;;90.25;62.53;;;;;;;2.01;100.00;103515.66;5331630;27;20066;-75
2023/01/25 04:21:16;;;;;;;90.13;62.38;;;;;;;1.97;100.00;103512.28;5318241;27;20072;-78
2023/01/25 04:23:48;;;;;;;91.90;61.92;;;;;;;1.89;100.00;103517.44;5314356;27;20030;-75
2023/01/25 04:26:19;;;;;;;89.55;62.15;;;;;;;1.87;100.00;103515.75;5330222;27;20019;-76
2023/01/25 04:28:50;;;;;;;88.72;58.78;;;;;;;1.85;100.00;103504.56;5333707;27;20030;-77
2023/01/25 04:31:21;;;;;;;91.13;61.67;;;;;;;1.82;100.00;103499.41;5333325;27;20026;-76
2023/01/25 04:33:54;;;;;;;89.22;61.55;;;;;;;1.88;100.00;103496.78;5340743;27;20107;-76
2023/01/25 04:36:25;;;;;;;89.38;60.38;;;;;;;1.90;100.00;103506.28;5322453;27;20052;-76
2023/01/25 04:38:56;;;;;;;86.97;59.75;;;;;;;1.85;100.00;103510.59;5336715;27;20024;-76
2023/01/25 04:41:29;;;;;;;85.70;57.78;;;;;;;1.86;100.00;103506.31;5320735;27;20038;-75
2023/01/25 04:44:00;;;;;;;83.35;57.88;;;;;;;1.83;100.00;103504.56;5334419;27;20105;-76
2023/01/25 04:46:32;;;;;;;84.85;57.78;;;;;;;1.85;100.00;103508.00;5336972;27;20039;-76
2023/01/25 04:49:03;;;;;;;81.70;54.95;;;;;;;1.85;100.00;103500.25;5331797;27;20023;-78
2023/01/25 04:51:34;;;;;;;88.53;59.25;;;;;;;1.88;100.00;103504.53;5334653;27;20027;-75
2023/01/25 04:54:06;;;;;;;83.18;56.72;;;;;;;1.84;100.00;103498.53;5331380;27;20028;-76
2023/01/25 04:56:37;;;;;;;84.18;57.40;;;;;;;1.72;100.00;103484.84;5335703;27;20106;-76
2023/01/25 04:59:09;;;;;;;86.30;57.78;;;;;;;1.77;100.00;103501.16;5330861;27;20050;-78
2023/01/25 05:01:41;;;;;;;82.13;57.30;;;;;;;1.78;100.00;103495.13;5329846;27;20031;-76
2023/01/25 05:04:12;;;;;;;85.57;57.85;;;;;;;1.82;100.00;103494.22;5332626;27;20022;-78
2023/01/25 05:06:44;;;;;;;81.70;57.58;;;;;;;1.75;100.00;103487.41;5333923;27;20039;-75
2023/01/25 05:09:16;;;;;;;80.70;56.67;;;;;;;1.74;100.00;103483.94;5330882;27;20023;-75
2023/01/25 05:11:47;;;;;;;79.22;55.80;;;;;;;1.60;100.00;103476.28;5325821;27;20480;-76
2023/01/25 05:14:19;;;;;;;81.60;55.25;;;;;;;1.63;100.00;103485.72;5331078;27;20035;-76
2023/01/25 05:16:50;;;;;;;82.55;55.83;;;;;;;1.69;100.00;103483.97;5334078;27;20070;-76
2023/01/25 05:19:21;;;;;;;81.93;57.33;;;;;;;1.73;100.00;103478.78;5326804;27;20076;-76
2023/01/25 05:21:58;;;;;;;81.13;54.55;;;;;;;1.72;100.00;103475.34;5330992;27;20087;-75
2023/01/25 05:24:31;;;;;;;85.82;59.63;;;;;;;1.77;100.00;103476.16;5332559;27;20019;-77
2023/01/25 05:27:03;;;;;;;79.88;54.47;;;;;;;1.79;100.00;103477.03;5332043;27;20039;-75
2023/01/25 05:29:39;;;;;;;82.72;56.33;;;;;;;1.91;100.00;103482.13;5331749;27;20357;-76
2023/01/25 05:32:13;;;;;;;85.72;57.05;;;;;;;1.82;100.00;103476.13;5318720;27;20508;-76
2023/01/25 05:34:45;;;;;;;80.50;56.55;;;;;;;1.74;100.00;103473.59;5322857;27;20051;-75
2023/01/25 05:37:19;;;;;;;80.28;56.33;;;;;;;1.75;100.00;103466.72;5321744;27;20197;-76
2023/01/25 05:39:50;;;;;;;82.50;56.72;;;;;;;1.67;100.00;103465.03;5329291;27;20023;-76
2023/01/25 05:42:21;;;;;;;80.45;55.75;;;;;;;1.66;100.00;103471.06;5333050;27;20488;-75
2023/01/25 05:44:54;;;;;;;79.05;55.22;;;;;;;1.70;100.00;103469.31;5309355;27;20079;-75
2023/01/25 05:47:25;;;;;;;82.80;55.70;;;;;;;1.67;100.00;103465.03;5330403;27;20024;-76
2023/01/25 05:49:56;;;;;;;79.55;54.58;;;;;;;1.69;100.00;103465.88;5312778;27;20042;-76
2023/01/25 05:52:28;;;;;;;78.68;55.35;;;;;;;1.74;100.00;103475.31;5330518;27;20019;-76
2023/01/25 05:54:59;;;;;;;78.53;54.05;;;;;;;1.69;100.00;103459.84;5326940;27;20041;-75
2023/01/25 05:57:30;;;;;;;81.38;53.97;;;;;;;1.48;100.00;103436.72;5315043;27;20026;-77
2023/01/25 06:00:04;;;;;;;84.90;57.38;;;;;;;1.68;100.00;103460.72;5328747;27;20024;-75
2023/01/25 06:02:35;;;;;;;84.18;58.60;;;;;;;1.67;100.00;103467.63;5325519;27;20034;-75
2023/01/25 06:05:07;;;;;;;81.35;56.22;;;;;;;1.67;100.00;103465.03;5326891;27;20023;-76
2023/01/25 06:07:38;;;;;;;78.13;53.63;;;;;;;1.74;100.00;103455.50;5330211;27;20465;-75
2023/01/25 06:10:10;;;;;;;82.57;56.88;;;;;;;1.71;100.00;103450.38;5327601;27;20077;-75
2023/01/25 06:12:41;;;;;;;86.07;56.60;;;;;;;1.74;100.00;103465.00;5330656;27;20031;-76
2023/01/25 06:15:12;;;;;;;76.72;54.65;;;;;;;1.80;100.00;103471.00;5326386;27;20030;-75
2023/01/25 06:17:44;;;;;;;81.22;56.13;;;;;;;1.81;100.00;103466.69;5331548;27;20023;-77
2023/01/25 06:20:15;;;;;;;81.15;56.58;;;;;;;1.74;100.00;103455.50;5329586;27;20557;-75
2023/01/25 06:22:51;;;;;;;82.38;56.15;;;;;;;1.88;100.00;103468.34;5308591;27;20050;-78
2023/01/25 06:25:22;;;;;;;81.57;55.95;;;;;;;1.70;100.00;103453.81;5321903;27;20064;-76
2023/01/25 06:27:54;;;;;;;79.07;54.05;;;;;;;1.78;100.00;103469.28;5321835;27;20074;-75
2023/01/25 06:30:26;;;;;;;80.75;54.25;;;;;;;1.73;100.00;103469.31;5326031;27;20138;-76
2023/01/25 06:32:58;;;;;;;77.43;52.72;;;;;;;1.65;100.00;103451.25;5320725;27;20110;-76
2023/01/25 06:35:32;;;;;;;73.30;51.95;;;;;;;1.75;100.00;103459.84;5326514;27;20313;-76
2023/01/25 06:38:04;;;;;;;75.90;52.80;;;;;;;1.71;100.00;103465.88;5324068;27;20028;-77
2023/01/25 06:40:35;;;;;;;73.03;51.33;;;;;;;1.72;100.00;103466.75;5326936;27;20023;-74
2023/01/25 06:43:09;;;;;;;74.38;53.42;;;;;;;1.70;100.00;103464.16;5313373;27;20031;-76
2023/01/25 06:45:41;;;;;;;73.13;50.80;;;;;;;1.61;100.00;103464.22;5303656;27;20119;-77
2023/01/25 06:48:12;;;;;;;71.55;50.25;;;;;;;1.57;100.00;103463.38;5324541;27;20122;-75
2023/01/25 06:50:43;;;;;;;76.55;52.92;;;;;;;1.58;100.00;103461.63;5329173;27;20058;-76
2023/01/25 06:53:14;;;;;;;72.05;50.55;;;;;;;1.62;100.00;103461.59;5327860;27;20027;-77
2023/01/25 06:55:46;;;;;;;74.20;52.53;;;;;;;1.63;100.00;103458.19;5317039;27;20493;-76
2023/01/25 06:58:17;;;;;;;70.85;51.10;;;;;;;1.65;100.00;103460.75;5321190;28;20103;-77
2023/01/25 07:00:48;;;;;;;73.60;50.95;;;;;;;1.61;100.00;103453.88;5326723;27;20023;-75
2023/01/25 07:03:20;;;;;;;71.85;51.05;;;;;;;1.61;100.00;103459.91;5316072;28;20019;-76
2023/01/25 07:05:59;;;;;;;69.65;50.13;;;;;;;1.66;100.00;103457.28;5315071;28;20032;-80
2023/01/25 07:08:31;;;;;;;68.28;48.53;;;;;;;1.58;100.00;103453.88;5305580;28;20392;-76
2023/01/25 07:11:05;;;;;;;72.60;49.73;;;;;;;1.60;100.00;103447.84;5316190;28;20020;-79
2023/01/25 07:13:36;;;;;;;;;;;;;;;2.16;100.00;103454.38;5326201;28;20414;-77
2023/01/25 07:16:12;;;;;;;74.55;49.28;;;;;;;1.70;100.00;103459.88;5327674;28;20045;-78
2023/01/25 07:18:43;;;;;;;74.78;51.17;;;;;;;1.56;100.00;103456.50;5327881;28;20059;-78
2023/01/25 07:21:17;;;;;;;72.03;49.20;;;;;;;1.60;100.00;103459.91;5330931;28;20051;-78
2023/01/25 07:23:49;;;;;;;75.47;51.38;;;;;;;1.58;100.00;103456.47;5328770;28;20057;-77
2023/01/25 07:26:23;;;;;;;69.57;49.93;;;;;;;1.62;100.00;103459.03;5312566;28;20036;-78
2023/01/25 07:28:56;;;;;;;69.60;51.03;;;;;;;1.54;100.00;103453.03;5325942;28;20492;-77
2023/01/25 07:31:27;;;;;;;71.13;49.90;;;;;;;1.53;100.00;103451.34;5327629;28;20034;-77
2023/01/25 07:33:58;;;;;;;70.97;49.15;;;;;;;1.55;100.00;103452.16;5326398;28;20559;-77
2023/01/25 07:36:30;;;;;;;67.95;48.17;;;;;;;1.57;100.00;103450.44;5321437;28;20020;-78
2023/01/25 07:39:01;;;;;;;68.65;48.70;;;;;;;1.52;100.00;103444.47;5321570;28;20048;-78
2023/01/25 07:41:33;;;;;;;71.43;49.08;;;;;;;1.46;100.00;103436.72;5325453;28;20081;-78
2023/01/25 07:44:04;;;;;;;66.40;47.58;;;;;;;1.55;100.00;103448.72;5320181;28;20044;-78
2023/01/25 07:46:36;;;;;;;68.95;49.42;;;;;;;1.49;100.00;103443.63;5324658;28;20095;-78
2023/01/25 07:49:07;;;;;;;72.38;50.50;;;;;;;1.50;100.00;103441.00;5326013;28;20031;-77
2023/01/25 07:51:39;;;;;;;67.40;48.10;;;;;;;1.48;100.00;103440.19;5329358;28;20038;-78
2023/01/25 07:54:11;;;;;;;68.03;48.17;;;;;;;1.45;100.00;103441.03;5325399;28;20036;-78
2023/01/25 07:56:42;;;;;;;72.35;47.13;;;;;;;1.43;100.00;103450.50;5327335;28;20084;-75
2023/01/25 07:59:14;;;;;;;73.03;49.67;;;;;;;1.43;100.00;103440.16;5306904;28;20357;-76
2023/01/25 08:01:45;;;;;;;67.63;47.60;;;;;;;1.42;100.00;103446.22;5327477;28;20031;-78
2023/01/25 08:04:16;;;;;;;75.45;50.10;;;;;;;1.35;100.00;103436.78;5325286;28;20435;-78
2023/01/25 08:06:48;;;;;;;73.05;50.42;;;;;;;1.40;100.00;103447.06;5324076;28;20159;-77
2023/01/25 08:09:19;;;;;;;72.57;49.22;;;;;;;1.37;100.00;103436.78;5323279;28;20497;-77
2023/01/25 08:11:52;;;;;;;69.60;48.53;;;;;;;1.44;100.00;103448.81;5320524;28;20126;-76
2023/01/25 08:14:23;;;;;;;69.47;47.05;;;;;;;1.46;100.00;103441.88;5327464;27;20030;-78
2023/01/25 08:16:55;;;;;;;70.32;49.85;;;;;;;1.36;100.00;103432.47;5322981;27;20094;-78
2023/01/25 08:19:26;;;;;;;79.43;50.53;;;;;;;1.38;100.00;103436.75;5330488;27;20051;-77
2023/01/25 08:21:57;;;;;;;75.53;52.53;;;;;;;1.37;100.00;103439.38;5330120;27;20035;-78
2023/01/25 08:24:29;;;;;;;71.95;48.58;;;;;;;1.38;100.00;103431.59;5330051;27;20482;-78
2023/01/25 08:27:00;;;;;;;74.35;50.17;;;;;;;1.38;100.00;103441.06;5328494;27;20369;-78
2023/01/25 08:29:31;;;;;;;70.57;48.65;;;;;;;1.42;100.00;103422.13;5329099;27;20039;-78
2023/01/25 08:32:04;;;;;;;70.25;48.42;;;;;;;1.44;100.00;103426.41;5326065;27;20052;-77
2023/01/25 08:34:36;;;;;;;73.05;49.22;;;;;;;1.38;100.00;103420.41;5330534;27;20023;-76
2023/01/25 08:37:07;;;;;;;74.32;50.35;;;;;;;1.41;100.00;103421.25;5325599;27;20046;-78
2023/01/25 08:39:39;;;;;;;75.28;51.03;;;;;;;1.37;100.00;103408.38;5325418;27;20456;-78
2023/01/25 08:42:10;;;;;;;68.78;47.97;;;;;;;1.37;100.00;103405.78;5328009;27;20022;-78
2023/01/25 08:44:41;;;;;;;75.18;48.55;;;;;;;1.37;100.00;103411.81;5332643;27;20043;-78
2023/01/25 08:47:13;;;;;;;74.10;49.47;;;;;;;1.34;100.00;103423.88;5327518;27;20027;-78
2023/01/25 08:49:44;;;;;;;77.65;52.55;;;;;;;1.40;100.00;103429.88;5311266;27;20160;-78
2023/01/25 08:52:16;;;;;;;75.22;50.72;;;;;;;1.41;100.00;103428.16;5325932;27;20049;-76
2023/01/25 08:54:53;;;;;;;74.80;50.75;;;;;;;1.50;100.00;103424.66;5327338;27;20030;-78
2023/01/25 08:57:24;;;;;;;74.35;50.85;;;;;;;1.42;100.00;103429.84;5322923;27;20066;-78
2023/01/25 08:59:55;;;;;;;77.00;51.55;;;;;;;1.38;100.00;103426.44;5334961;27;20046;-79
2023/01/25 09:02:27;;;;;;;77.07;52.15;;;;;;;1.33;100.00;103417.00;5333331;27;20027;-77
2023/01/25 09:04:58;;;;;;;75.55;51.40;;;;;;;1.26;100.00;103398.09;5330379;27;20027;-78
2023/01/25 09:07:31;;;;;;;77.10;52.35;;;;;;;1.34;100.00;103405.81;5327674;27;20395;-76
2023/01/25 09:10:07;;;;;;;80.32;54.00;;;;;;;1.44;100.00;103407.47;5335623;27;20510;-80
2023/01/25 09:12:38;;;;;;;78.47;52.80;;;;;;;1.39;100.00;103402.31;5329387;27;20045;-78
2023/01/25 09:15:09;;;;;;;79.85;51.72;;;;;;;1.40;100.00;103414.38;5332748;27;20023;-78
2023/01/25 09:17:41;;;;;;;81.22;52.20;;;;;;;1.40;100.00;103408.34;5334496;27;20055;-78
2023/01/25 09:20:14;;;;;;;79.10;51.88;;;;;;;1.41;100.00;103404.91;5327508;27;20433;-78
2023/01/25 09:22:46;;;;;;;;;;;;;;;2.00;100.00;103405.38;5329096;27;20484;-78
2023/01/25 09:25:17;;;;;;;80.47;50.97;;;;;;;1.49;100.00;103403.13;5327767;27;20051;-78
2023/01/25 09:27:52;;;;;;;76.47;49.92;;;;;;;1.51;100.00;103405.69;5331820;27;20027;-76
2023/01/25 09:30:24;;;;;;;76.57;51.30;;;;;;;1.49;100.00;103400.56;5327034;27;20027;-76
2023/01/25 09:32:55;;;;;;;76.75;50.13;;;;;;;1.59;100.00;103404.81;5332861;27;20023;-78
2023/01/25 09:35:28;;;;;;;76.55;52.25;;;;;;;1.46;100.00;103400.56;5331508;27;20492;-79
2023/01/25 09:37:59;;;;;;;74.05;49.72;;;;;;;1.46;100.00;103390.22;5330359;27;20429;-78
2023/01/25 09:40:38;;;;;;;74.88;51.65;;;;;;;1.59;100.00;103391.00;5314725;27;20030;-78
2023/01/25 09:43:22;;;;;;;76.50;50.97;;;;;;;1.51;100.00;103372.09;5331319;27;20030;-77
2023/01/25 09:45:54;;;;;;;75.28;50.85;;;;;;;1.57;100.00;103403.94;5332377;27;20039;-78
2023/01/25 09:48:39;;;;;;;79.05;51.25;;;;;;;1.70;100.00;103397.84;5309098;27;20031;-78
2023/01/25 09:51:39;;;;;;;82.22;54.90;;;;;;;1.74;100.00;103390.91;5327077;27;20072;-77
2023/01/25 09:54:11;;;;;;;83.70;54.17;;;;;;;1.51;100.00;103385.88;5330990;27;20096;-77
2023/01/25 09:56:46;;;;;;;82.43;53.75;;;;;;;1.44;100.00;103394.56;5330361;27;20068;-78
2023/01/25 09:59:22;;;;;;;82.05;54.33;;;;;;;1.51;100.00;103395.34;5323724;27;20115;-78
2023/01/25 10:02:01;;;;;;;86.78;54.97;;;;;;;1.55;100.00;103387.56;5323124;27;20057;-77
2023/01/25 10:04:38;;;;;;;89.15;54.97;;;;;;;1.66;100.00;103393.53;5326964;27;20031;-76
2023/01/25 10:07:44;;;;;;;84.35;53.35;;;;;;;1.88;100.00;103395.97;5303565;27;20023;-77
2023/01/25 10:10:40;;;;;;;90.10;55.05;;;;;;;1.80;100.00;103385.69;5304925;27;20039;-77
2023/01/25 10:13:14;;;;;;;83.05;52.50;;;;;;;1.48;100.00;103380.75;5316321;27;20047;-78
2023/01/25 10:15:50;;;;;;;86.03;55.10;;;;;;;1.55;100.00;103387.56;5325190;27;20079;-78
2023/01/25 10:18:29;;;;;;;88.32;55.72;;;;;;;1.54;100.00;103378.13;5324935;27;20051;-78
2023/01/25 10:21:09;;;;;;;81.40;52.53;;;;;;;1.65;100.00;103367.72;5324076;27;20487;-76
2023/01/25 10:23:59;;;;;;;82.65;53.08;;;;;;;1.65;100.00;103378.06;5331452;27;20027;-78
2023/01/25 10:26:35;;;;;;;80.80;52.65;;;;;;;1.69;100.00;103369.41;5327144;27;20421;-78
2023/01/25 10:29:12;;;;;;;77.47;51.45;;;;;;;1.69;100.00;103370.25;5328270;27;20099;-78
2023/01/25 10:31:52;;;;;;;81.95;53.10;;;;;;;1.78;100.00;103371.06;5324074;27;20027;-76
2023/01/25 10:34:38;;;;;;;79.53;52.20;;;;;;;1.81;100.00;103368.47;5322236;27;20110;-78
2023/01/25 10:37:15;;;;;;;82.53;53.85;;;;;;;1.72;100.00;103363.38;5327180;27;20067;-78
2023/01/25 10:39:56;;;;;;;81.82;53.08;;;;;;;1.68;100.00;103358.22;5326548;27;20019;-78
2023/01/25 10:42:35;;;;;;;78.75;51.67;;;;;;;1.62;100.00;103355.66;5327920;27;20076;-77
2023/01/25 10:45:12;;;;;;;79.93;51.22;;;;;;;1.69;100.00;103347.00;5311885;28;20488;-78
2023/01/25 10:47:49;;;;;;;82.90;52.30;;;;;;;1.69;100.00;103331.50;5328842;27;20027;-77
2023/01/25 10:50:42;;;;;;;80.20;52.03;;;;;;;1.97;100.00;103326.13;5331122;27;20782;-79
2023/01/25 10:53:28;;;;;;;79.57;52.17;;;;;;;1.85;100.00;103321.88;5328459;27;20027;-76
2023/01/25 10:56:18;;;;;;;84.22;53.92;;;;;;;1.93;100.00;103317.53;5319850;28;20043;-78
2023/01/25 10:58:55;;;;;;;75.43;50.63;;;;;;;1.75;100.00;103316.84;5323805;28;20015;-78
2023/01/25 11:01:33;;;;;;;81.07;51.25;;;;;;;1.83;100.00;103312.47;5325760;28;20028;-79
2023/01/25 11:04:24;;;;;;;75.15;50.35;;;;;;;1.88;100.00;103301.19;5325435;28;20052;-76
2023/01/25 11:06:55;;;;;;;81.78;52.17;;;;;;;1.65;100.00;103296.22;5306606;28;20051;-78
2023/01/25 11:09:33;;;;;;;78.88;51.47;;;;;;;1.72;100.00;103288.44;5328519;28;20051;-79
2023/01/25 11:12:19;;;;;;;80.63;52.53;;;;;;;1.77;100.00;103284.91;5329718;28;20023;-78
2023/01/25 11:14:50;;;;;;;78.25;49.88;;;;;;;1.62;100.00;103274.72;5333959;28;20015;-79
2023/01/25 11:17:29;;;;;;;79.38;51.75;;;;;;;1.62;100.00;103262.66;5327290;28;20038;-78
2023/01/25 11:20:18;;;;;;;82.32;54.10;;;;;;;1.75;100.00;103271.16;5324301;28;20046;-78
2023/01/25 11:22:53;;;;;;;82.32;52.08;;;;;;;1.61;100.00;103267.84;5331096;28;20328;-76
2023/01/25 11:25:30;;;;;;;84.70;52.53;;;;;;;1.60;100.00;103267.00;5326478;28;20028;-78
2023/01/25 11:28:18;;;;;;;82.32;52.70;;;;;;;1.83;100.00;103260.75;5329634;28;20768;-79
2023/01/25 11:30:51;;;;;;;81.20;51.95;;;;;;;1.58;100.00;103244.59;5324345;28;20142;-77
2023/01/25 11:33:25;;;;;;;79.57;52.88;;;;;;;1.57;100.00;103241.16;5332480;28;20034;-78
2023/01/25 11:36:28;;;;;;;82.35;53.67;;;;;;;1.75;100.00;103235.00;5327841;28;20015;-76
2023/01/25 11:39:14;;;;;;;79.33;51.00;;;;;;;1.67;100.00;103235.06;5324354;28;20091;-78